CheckWX is a tool to help pilots better visualize weather data.  It is not intended as a substitute for an official pre-flight weather briefing.

09:40:27 UTC

KPDK METAR
Dekalb-Peachtree Airport
Atlanta, Georgia, USA
Current

10 mins ago

KPDK 200930Z AUTO 08009KT 060V140 3SM -RA BR OVC006 03/02 A3023 RMK AO2 RAB15 CIG 004V009 P0000 T00280022
Observed
Feb-20 @ 09:30 UTC
Wind
  • 080° at 9 KTS
Visibility
4,828 meters
Flight Rules
IFR
Conditions
Light Rain, Mist
Cloud Levels
  • Overcast at 600' AGL
Temperature
C / 37°F
Dewpoint
C / 36°F
Humidity
93%
Altimeter
30.23" Hg
Pressure
1023.72 hPa
Current Rain
0.01"
Previous

47 mins ago

KPDK 200853Z AUTO VRB06KT 2 1/2SM BR OVC006 03/02 A3024 RMK AO2 RAB0758E07B39E48UPB16E32B37E51 SLP254 P0001 60002 T00280022 58009
Observed
Feb-20 @ 08:53 UTC
Wind
  • Variable at 6 KTS
Visibility
4,023 meters
Flight Rules
IFR
Conditions
Mist
Cloud Levels
  • Overcast at 600' AGL
Temperature
C / 37°F
Dewpoint
C / 36°F
Humidity
93%
Altimeter
30.24" Hg
Pressure
1025.4 hPa
Current Rain
0.01"
Previous

1 hour ago

KPDK 200835Z AUTO 08007KT 050V110 2 1/2SM BR OVC006 03/02 A3025 RMK AO2 RAB0758E07UPB16E32 P0000 T00280022
Observed
Feb-20 @ 08:35 UTC
Wind
  • 080° at 7 KTS
Visibility
4,023 meters
Flight Rules
IFR
Conditions
Mist
Cloud Levels
  • Overcast at 600' AGL
Temperature
C / 37°F
Dewpoint
C / 36°F
Humidity
93%
Altimeter
30.25" Hg
Pressure
1024.42 hPa
Current Rain
0.01"